createdAt,value
2019-03-28T00:03:57.977Z,27.48
2019-03-28T00:09:00.415Z,28.17
2019-03-28T00:14:02.363Z,39.45
2019-03-28T00:19:04.467Z,31.20
2019-03-28T00:24:13.901Z,34.55
2019-03-28T00:29:15.883Z,32.13
2019-03-28T00:34:17.902Z,31.97
2019-03-28T00:39:20.084Z,26.52
2019-03-28T00:44:22.095Z,31.42
2019-03-28T00:49:24.046Z,30.02
2019-03-28T00:54:25.974Z,33.45
2019-03-28T00:59:28.024Z,29.10
2019-03-28T01:04:30.056Z,33.50
2019-03-28T01:09:32.142Z,34.23
2019-03-28T01:14:34.227Z,36.08
2019-03-28T01:19:36.232Z,38.02
2019-03-28T01:24:38.355Z,30.60
2019-03-28T01:29:40.628Z,34.45
2019-03-28T01:34:42.695Z,31.23
2019-03-28T01:39:44.668Z,33.02
2019-03-28T01:44:46.655Z,31.35
2019-03-28T01:49:48.597Z,29.02
2019-03-28T01:54:50.593Z,31.12
2019-03-28T01:59:52.591Z,30.17
2019-03-28T02:04:55.565Z,29.95
2019-03-28T02:09:58.174Z,32.30
2019-03-28T02:15:00.256Z,34.83
2019-03-28T02:20:02.337Z,30.60
2019-03-28T02:25:04.651Z,31.48
2019-03-28T02:30:06.882Z,34.78
2019-03-28T02:35:08.815Z,33.73
2019-03-28T02:40:10.946Z,39.20
2019-03-28T02:45:12.949Z,38.50
2019-03-28T02:50:14.949Z,34.88
2019-03-28T02:55:16.899Z,30.23
2019-03-28T03:00:18.819Z,36.48
2019-03-28T03:05:21.991Z,28.00
2019-03-28T03:10:24.096Z,23.60
2019-03-28T03:15:27.155Z,30.48
2019-03-28T03:20:29.277Z,31.97
2019-03-28T03:25:31.489Z,25.60
2019-03-28T03:30:33.468Z,30.75
2019-03-28T03:35:35.546Z,28.87
2019-03-28T03:40:37.526Z,29.32
2019-03-28T03:45:39.496Z,29.95
2019-03-28T03:50:42.065Z,26.30
2019-03-28T03:55:43.907Z,28.80
2019-03-28T04:00:45.887Z,32.53
2019-03-28T04:05:48.041Z,34.03
2019-03-28T04:10:51.524Z,28.85
2019-03-28T04:15:53.506Z,29.75
2019-03-28T04:20:55.484Z,29.30
2019-03-28T04:25:57.446Z,26.07
2019-03-28T04:30:59.559Z,24.43
2019-03-28T04:36:02.082Z,29.70
2019-03-28T04:41:04.003Z,24.77
2019-03-28T04:46:05.962Z,27.07
2019-03-28T04:51:08.181Z,29.85
2019-03-28T04:56:10.157Z,28.27
2019-03-28T05:01:12.458Z,29.32
2019-03-28T05:06:14.672Z,28.05
2019-03-28T05:11:16.632Z,24.72
2019-03-28T05:16:19.035Z,29.15
2019-03-28T05:21:20.963Z,29.98
2019-03-28T05:26:24.107Z,34.13
2019-03-28T05:31:26.366Z,28.20
2019-03-28T05:36:28.318Z,37.17
2019-03-28T05:41:30.311Z,26.55
2019-03-28T05:46:32.293Z,31.85
2019-03-28T05:51:34.601Z,30.52
2019-03-28T05:56:36.528Z,33.55
2019-03-28T06:01:38.759Z,27.00
2019-03-28T06:06:41.881Z,24.25
2019-03-28T06:11:43.973Z,32.05
2019-03-28T06:22:07.062Z,33.23
2019-03-28T06:27:09.381Z,27.90
2019-03-28T06:32:13.485Z,33.35
2019-03-28T06:42:36.583Z,30.20
2019-03-28T06:47:38.684Z,31.10
2019-03-28T06:52:40.753Z,36.45
2019-03-28T06:57:42.823Z,44.03
2019-03-28T07:02:44.892Z,34.67
2019-03-28T07:07:46.965Z,39.30
2019-03-28T07:12:48.988Z,44.95
2019-03-28T07:18:10.184Z,40.38
2019-03-28T07:23:31.345Z,37.70
2019-03-28T07:28:33.617Z,34.35
2019-03-28T07:33:35.811Z,41.30
2019-03-28T07:38:37.808Z,34.78
2019-03-28T07:43:39.840Z,40.30
2019-03-28T07:48:41.904Z,44.13
2019-03-28T07:53:45.935Z,46.48
2019-03-28T07:58:47.921Z,43.58
2019-03-28T08:03:50.270Z,39.30
2019-03-28T08:08:52.412Z,41.88
2019-03-28T08:13:54.458Z,43.10
2019-03-28T08:18:56.493Z,48.92
2019-03-28T08:23:58.444Z,44.88
2019-03-28T08:29:00.454Z,38.50
2019-03-28T08:34:02.469Z,42.78
2019-03-28T08:39:05.465Z,41.30
2019-03-28T08:44:07.528Z,43.02
2019-03-28T08:49:09.517Z,43.17
2019-03-28T08:54:11.540Z,42.85
2019-03-28T08:59:13.553Z,47.05
2019-03-28T09:04:15.915Z,40.17
2019-03-28T09:09:21.010Z,42.55
2019-03-28T09:14:21.797Z,39.83
2019-03-28T09:19:23.916Z,38.70
2019-03-28T09:24:25.913Z,40.80
2019-03-28T09:29:27.927Z,40.28
2019-03-28T09:34:29.931Z,45.10
2019-03-28T09:39:31.891Z,43.75
2019-03-28T09:44:33.946Z,36.45
2019-03-28T09:49:36.224Z,40.60
2019-03-28T09:54:38.285Z,39.25
2019-03-28T09:59:40.291Z,32.90
2019-03-28T10:04:42.325Z,37.05
2019-03-28T10:09:44.408Z,37.80
2019-03-28T10:14:46.570Z,30.48
2019-03-28T10:19:48.540Z,32.83
2019-03-28T10:24:50.620Z,33.60
2019-03-28T10:29:52.639Z,30.60
2019-03-28T10:34:54.770Z,26.77
2019-03-28T10:39:56.869Z,29.12
2019-03-28T10:44:59.249Z,30.70
2019-03-28T10:50:03.974Z,27.58
2019-03-28T10:55:05.239Z,27.87
2019-03-28T11:00:08.108Z,27.52
2019-03-28T11:05:10.150Z,27.13
2019-03-28T11:10:12.351Z,28.87
2019-03-28T11:15:14.617Z,23.25
2019-03-28T11:20:16.909Z,22.85
2019-03-28T11:25:19.009Z,17.55
2019-03-28T11:30:21.094Z,16.48
2019-03-28T11:35:23.131Z,15.50
2019-03-28T11:40:25.181Z,12.25
2019-03-28T11:45:27.455Z,11.28
2019-03-28T11:50:29.550Z,12.68
2019-03-28T11:55:31.714Z,10.25
2019-03-28T12:00:33.807Z,9.35
2019-03-28T12:05:35.799Z,11.95
2019-03-28T12:10:38.789Z,14.03
2019-03-28T12:15:40.916Z,8.48
2019-03-28T12:20:45.420Z,7.78
2019-03-28T12:25:47.431Z,6.05
2019-03-28T12:30:49.623Z,9.80
2019-03-28T12:35:52.530Z,7.87
2019-03-28T12:40:54.727Z,6.17
2019-03-28T12:45:56.938Z,5.90
2019-03-28T12:50:59.367Z,5.62
2019-03-28T12:56:02.544Z,8.45
2019-03-28T13:01:04.675Z,10.60
2019-03-28T13:06:06.650Z,7.25
2019-03-28T13:11:08.706Z,6.78
2019-03-28T13:16:10.991Z,9.93
2019-03-28T13:21:14.119Z,8.23
2019-03-28T13:26:16.357Z,9.08
2019-03-28T13:31:18.499Z,11.10
2019-03-28T13:36:20.813Z,13.22
2019-03-28T13:41:22.935Z,9.68
2019-03-28T13:46:24.951Z,12.85
2019-03-28T13:51:27.007Z,13.62
2019-03-28T13:56:29.039Z,11.68
2019-03-28T14:01:31.031Z,10.85
2019-03-28T14:06:33.307Z,15.88
2019-03-28T14:11:35.263Z,11.88
2019-03-28T14:16:37.288Z,10.50
2019-03-28T14:21:39.377Z,11.10
2019-03-28T14:26:41.413Z,9.60
2019-03-28T14:31:43.451Z,8.40
2019-03-28T14:36:45.408Z,12.33
2019-03-28T14:41:47.378Z,8.63
2019-03-28T14:46:49.451Z,9.95
2019-03-28T14:51:51.463Z,8.70
2019-03-28T14:56:54.445Z,8.58
2019-03-28T15:01:56.471Z,9.83
2019-03-28T15:06:59.633Z,9.60
2019-03-28T15:12:01.720Z,8.23
2019-03-28T15:17:03.902Z,10.68
2019-03-28T15:22:05.962Z,12.50
2019-03-28T15:27:07.958Z,9.03
2019-03-28T15:32:10.025Z,12.88
2019-03-28T15:37:12.051Z,14.03
2019-03-28T15:42:14.033Z,18.02
2019-03-28T15:47:16.062Z,12.73
2019-03-28T15:52:18.077Z,13.10
2019-03-28T15:57:20.072Z,11.08
2019-03-28T16:02:22.137Z,11.50
2019-03-28T16:07:24.396Z,13.43
2019-03-28T16:12:26.411Z,11.25
2019-03-28T16:17:28.390Z,10.43
2019-03-28T16:22:30.680Z,11.70
2019-03-28T16:27:32.666Z,9.85
2019-03-28T16:32:34.756Z,10.88
2019-03-28T16:37:36.809Z,8.93
2019-03-28T16:42:38.863Z,8.13
2019-03-28T16:47:40.916Z,9.15
2019-03-28T16:52:43.577Z,9.20
2019-03-28T16:57:45.698Z,9.63
2019-03-28T17:02:47.971Z,7.72
2019-03-28T17:07:49.978Z,12.05
2019-03-28T17:12:51.965Z,10.88
2019-03-28T17:17:53.968Z,10.98
2019-03-28T17:22:55.937Z,13.30
2019-03-28T17:27:58.129Z,13.45
2019-03-28T17:33:00.445Z,13.60
2019-03-28T17:38:02.488Z,11.93
2019-03-28T17:43:04.475Z,15.70
2019-03-28T17:48:06.638Z,14.05
2019-03-28T17:53:08.738Z,14.85
2019-03-28T17:58:10.809Z,16.70
2019-03-28T18:03:12.939Z,14.30
2019-03-28T18:08:14.984Z,16.48
2019-03-28T18:13:17.210Z,16.87
2019-03-28T18:20:21.116Z,14.30
2019-03-28T18:25:24.164Z,15.48
2019-03-28T18:30:26.809Z,18.10
2019-03-28T18:35:29.855Z,16.30
2019-03-28T18:40:32.819Z,17.85
2019-03-28T18:45:36.318Z,17.30
2019-03-28T18:50:41.110Z,18.67
2019-03-28T18:55:45.326Z,17.27
2019-03-28T19:00:48.675Z,19.77
2019-03-28T19:05:51.930Z,19.20
2019-03-28T19:10:54.652Z,16.10
2019-03-28T19:16:01.174Z,16.17
2019-03-28T19:21:03.779Z,17.57
2019-03-28T19:26:06.285Z,19.48
2019-03-28T19:31:08.873Z,18.57
2019-03-28T19:36:13.119Z,15.72
2019-03-28T19:41:15.403Z,16.30
2019-03-28T19:46:17.426Z,15.65
2019-03-28T19:51:19.493Z,14.80
2019-03-28T19:56:26.117Z,14.60
2019-03-28T20:01:28.224Z,15.55
2019-03-28T20:06:30.266Z,15.55
2019-03-28T20:11:32.365Z,14.70
2019-03-28T20:16:34.465Z,15.25
2019-03-28T20:21:36.954Z,15.83
2019-03-28T20:26:39.006Z,13.88
2019-03-28T20:31:41.162Z,16.97
2019-03-28T20:36:44.118Z,13.98
2019-03-28T20:41:46.753Z,13.40
2019-03-28T20:46:48.919Z,16.27
2019-03-28T20:51:51.834Z,12.68
2019-03-28T20:56:54.019Z,14.50
2019-03-28T21:01:56.874Z,13.95
2019-03-28T21:06:59.181Z,14.03
2019-03-28T21:12:01.240Z,11.97
2019-03-28T21:17:03.362Z,16.17
2019-03-28T21:22:09.350Z,13.05
2019-03-28T21:27:11.366Z,14.07
2019-03-28T21:32:13.617Z,14.80
2019-03-28T21:37:15.567Z,11.88
2019-03-28T21:42:17.563Z,14.98
2019-03-28T21:47:19.574Z,20.20
2019-03-28T21:52:21.659Z,14.85
2019-03-28T21:57:23.742Z,13.38
2019-03-28T22:02:25.905Z,16.93
2019-03-28T22:07:27.928Z,13.22
2019-03-28T22:12:30.171Z,14.60
2019-03-28T22:17:32.452Z,13.65
2019-03-28T22:22:34.786Z,12.75
2019-03-28T22:27:36.824Z,12.20
2019-03-28T22:32:40.466Z,15.48
2019-03-28T22:37:42.929Z,14.78
2019-03-28T22:42:45.278Z,20.23
2019-03-28T22:47:47.285Z,18.40
2019-03-28T22:52:49.733Z,18.17
2019-03-28T22:57:54.036Z,17.02
2019-03-28T23:02:56.351Z,19.98
2019-03-28T23:07:58.881Z,19.07
2019-03-28T23:13:01.183Z,19.98
2019-03-28T23:18:05.851Z,17.40
2019-03-28T23:23:08.317Z,17.65
2019-03-28T23:28:10.382Z,18.20
2019-03-28T23:33:12.385Z,19.80
2019-03-28T23:38:15.155Z,18.05
2019-03-28T23:43:19.384Z,17.00
2019-03-28T23:48:21.850Z,14.53
2019-03-28T23:53:26.667Z,15.18
2019-03-28T23:58:28.730Z,18.37
